Szafir — 5BFC3 — position and weather

sailwx.info

Track history (hours):
 
Tides and Currents Weather Stations Pressure Air Temp Water Temp Dewpoint Dewpoint Depression Visibility Wind Speed Wind Dir Waves Ship Positions

Szafir

Last reported at 2015-Apr-01 04:33 UTC. Time now 2015-Apr-01 21:21 UTC.
Position N 59°36' E 023°11'.

Length 113 m; draft 7 m.

Type: Ship. MMSI: 209366000.

Date/timePositionNaut miles runAvg speedWind from/ knotsBaromVisibWave heightAir tempDewpointWater temp
2015-Apr-01 04:33N 59°36' E 023°11'1212.1
2015-Apr-01 03:33N 59°40' E 023°34'1212.0
2015-Apr-01 02:32N 59°43' E 023°57'8311.9
2015-Mar-31 19:32N 60°01' E 026°39'10410.5
2015-Mar-31 09:33N 59°54' E 030°07'3 0.1
2015-Mar-30 12:14N 59°52' E 030°13'0 0.0
2015-Mar-29 07:20N 59°52' E 030°13'0 0.0
2015-Mar-29 03:33N 59°52' E 030°13'2 1.6
2015-Mar-29 02:33N 59°53' E 030°10'105 6.5
2015-Mar-28 10:29N 59°60' E 026°41'1212.1
2015-Mar-28 09:31N 59°57' E 026°18'4912.3
2015-Mar-28 05:33N 59°45' E 024°43'1212.3
2015-Mar-28 04:33N 59°43' E 024°19'2712.2
2015-Mar-28 02:22N 59°35' E 023°29'35312.1
2015-Mar-26 21:10N 55°37' E 015°22'712.2
2015-Mar-26 20:33N 55°33' E 015°11'1211.8
2015-Mar-26 19:33N 55°28' E 014°52'1211.5
2015-Mar-26 18:33N 55°21' E 014°36'1211.5
2015-Mar-26 17:33N 55°12' E 014°23'1010.3
2015-Mar-26 16:33N 55°10' E 014°05'1212.2
2015-Mar-26 15:33N 55°11' E 013°44'1212.1
2015-Mar-26 14:32N 55°13' E 013°22'1212.0
2015-Mar-26 13:33N 55°14' E 013°02'1211.8
2015-Mar-26 12:33N 55°17' E 012°42'1010.3
2015-Mar-26 11:33N 55°27' E 012°41'1111.1
2015-Mar-26 10:33N 55°38' E 012°42'1111.0
2015-Mar-26 09:33N 55°49' E 012°42'1110.8
2015-Mar-26 08:33N 55°60' E 012°37'8 8.0
2015-Mar-26 07:33N 56°07' E 012°31'1110.6
2015-Mar-26 06:34N 56°12' E 012°15'1211.8
2015-Mar-26 05:33N 56°09' E 011°54'56 4.9
2015-Mar-25 18:04N 56°09' E 010°13'0 0.0
2015-Mar-25 17:31N 56°09' E 010°13'0 0.0
2015-Mar-25 16:31N 56°09' E 010°13'0 0.0
2015-Mar-25 15:31N 56°09' E 010°13'0 0.0
2015-Mar-25 14:28N 56°09' E 010°13'0 0.0
2015-Mar-25 13:28N 56°09' E 010°13'0 0.0
2015-Mar-25 12:25N 56°09' E 010°13'0 0.0
2015-Mar-25 11:19N 56°09' E 010°13'0 0.0
2015-Mar-25 10:25N 56°09' E 010°13'0 0.0
2015-Mar-25 09:31N 56°09' E 010°13'0 0.0
2015-Mar-25 08:31N 56°09' E 010°13'0 0.0
2015-Mar-25 07:28N 56°09' E 010°13'0 0.0
2015-Mar-25 06:31N 56°09' E 010°13'0 0.0
2015-Mar-25 05:22N 56°09' E 010°13'0 0.0
2015-Mar-25 04:31N 56°09' E 010°13'0 0.0
2015-Mar-25 03:31N 56°09' E 010°13'0 0.0
2015-Mar-25 02:19N 56°09' E 010°13'0 0.0
2015-Mar-25 01:31N 56°09' E 010°13'0 0.0
2015-Mar-25 00:28N 56°09' E 010°13'0 0.0
2015-Mar-24 23:28N 56°09' E 010°13'0 0.0
2015-Mar-24 22:28N 56°09' E 010°13'0 0.0
2015-Mar-24 21:19N 56°09' E 010°13'0 0.0
2015-Mar-24 20:31N 56°09' E 010°13'0 0.0
2015-Mar-24 19:31N 56°09' E 010°13'0 0.0
2015-Mar-24 18:31N 56°09' E 010°13'0 0.0
2015-Mar-24 17:13N 56°09' E 010°13'0 0.0
2015-Mar-24 16:31N 56°09' E 010°13'0 0.0
2015-Mar-24 15:31N 56°09' E 010°13'0 0.0
2015-Mar-24 14:31N 56°09' E 010°13'0 0.0
2015-Mar-24 13:31N 56°09' E 010°13'0 0.0
2015-Mar-24 12:33N 56°09' E 010°13'0 0.5
2015-Mar-24 11:33N 56°09' E 010°14'1 0.6
2015-Mar-24 10:25N 56°09' E 010°13'0 0.0
2015-Mar-24 09:31N 56°09' E 010°13'0 0.0
2015-Mar-24 08:31N 56°09' E 010°13'0 0.0
2015-Mar-24 07:31N 56°09' E 010°13'0 0.0
2015-Mar-24 06:31N 56°09' E 010°13'0 0.0
2015-Mar-24 05:31N 56°09' E 010°13'0 0.0
2015-Mar-24 04:28N 56°09' E 010°13'0 0.0
2015-Mar-24 03:31N 56°09' E 010°13'0 0.0
2015-Mar-24 02:31N 56°09' E 010°13'0 0.0
2015-Mar-24 01:31N 56°09' E 010°13'0 0.0
2015-Mar-24 00:31N 56°09' E 010°13'0 0.0
2015-Mar-23 23:31N 56°09' E 010°13'0 0.0
2015-Mar-23 22:31N 56°09' E 010°13'0 0.0
2015-Mar-23 21:31N 56°09' E 010°13'0 0.0
2015-Mar-23 20:31N 56°09' E 010°13'0 0.0
2015-Mar-23 19:31N 56°09' E 010°13'0 0.0
2015-Mar-23 18:31N 56°09' E 010°13'0 0.0
2015-Mar-23 17:31N 56°09' E 010°13'0 0.0
2015-Mar-23 16:31N 56°09' E 010°13'0 0.0
2015-Mar-23 15:31N 56°09' E 010°13'0 0.0
2015-Mar-23 14:25N 56°09' E 010°13'0 0.0
2015-Mar-23 13:19N 56°09' E 010°13'0 0.0
2015-Mar-23 12:31N 56°09' E 010°13'0 0.0
2015-Mar-23 11:31N 56°09' E 010°13'0 0.0
2015-Mar-23 10:31N 56°09' E 010°13'0 0.0
2015-Mar-23 09:07N 56°09' E 010°13'0 0.0
2015-Mar-23 08:19N 56°09' E 010°13'0 0.0
2015-Mar-23 07:25N 56°09' E 010°13'0 0.0
2015-Mar-23 06:31N 56°09' E 010°13'0 0.0
2015-Mar-23 05:28N 56°09' E 010°13'0 0.0
2015-Mar-23 04:31N 56°09' E 010°13'0 0.0
2015-Mar-23 03:31N 56°09' E 010°13'0 0.0
2015-Mar-23 02:28N 56°09' E 010°13'0 0.0
2015-Mar-23 01:31N 56°09' E 010°13'0 0.0
2015-Mar-23 00:28N 56°09' E 010°13'0 0.0
2015-Mar-22 23:31N 56°09' E 010°13'0 0.0
2015-Mar-22 22:31N 56°09' E 010°13'0 0.0
2015-Mar-22 21:31N 56°09' E 010°13'0 0.0
2015-Mar-22 20:31N 56°09' E 010°13'0 0.0
2015-Mar-22 19:31N 56°09' E 010°13'0 0.0
2015-Mar-22 18:31N 56°09' E 010°13'0 0.0
2015-Mar-22 17:31N 56°09' E 010°13'0 0.0
2015-Mar-22 16:31N 56°09' E 010°13'0 0.0
2015-Mar-22 15:31N 56°09' E 010°13'0 0.0
2015-Mar-22 14:31N 56°09' E 010°13'0 0.0
2015-Mar-22 13:28N 56°09' E 010°13'0 0.0
2015-Mar-22 12:31N 56°09' E 010°13'0 0.0
2015-Mar-22 11:31N 56°09' E 010°13'0 0.0
2015-Mar-22 10:31N 56°09' E 010°13'0 0.0
2015-Mar-22 09:31N 56°09' E 010°13'0 0.0
2015-Mar-22 08:31N 56°09' E 010°13'0 0.0
2015-Mar-22 07:31N 56°09' E 010°13'0 0.0
2015-Mar-22 06:31N 56°09' E 010°13'0 0.0
2015-Mar-22 05:31N 56°09' E 010°13'  
Track history (hours):
 
Tides and Currents Weather Stations Pressure Air Temp Water Temp Dewpoint Dewpoint Depression Visibility Wind Speed Wind Dir Waves Ship Positions

Szafir

Last reported at 2015-Apr-01 04:33 UTC. Time now 2015-Apr-01 21:21 UTC.
Position N 59°36' E 023°11'.

Length 113 m; draft 7 m.

Type: Ship. MMSI: 209366000.

Date/timePositionNaut miles runAvg speedWind from/ knotsBaromVisibWave heightAir tempDewpointWater temp
2015-Apr-01 04:33N 59°36' E 023°11'1212.1
2015-Apr-01 03:33N 59°40' E 023°34'1212.0
2015-Apr-01 02:32N 59°43' E 023°57'8311.9
2015-Mar-31 19:32N 60°01' E 026°39'10410.5
2015-Mar-31 09:33N 59°54' E 030°07'3 0.1
2015-Mar-30 12:14N 59°52' E 030°13'0 0.0
2015-Mar-29 07:20N 59°52' E 030°13'0 0.0
2015-Mar-29 03:33N 59°52' E 030°13'2 1.6
2015-Mar-29 02:33N 59°53' E 030°10'105 6.5
2015-Mar-28 10:29N 59°60' E 026°41'1212.1
2015-Mar-28 09:31N 59°57' E 026°18'4912.3
2015-Mar-28 05:33N 59°45' E 024°43'1212.3
2015-Mar-28 04:33N 59°43' E 024°19'2712.2
2015-Mar-28 02:22N 59°35' E 023°29'35312.1
2015-Mar-26 21:10N 55°37' E 015°22'712.2
2015-Mar-26 20:33N 55°33' E 015°11'1211.8
2015-Mar-26 19:33N 55°28' E 014°52'1211.5
2015-Mar-26 18:33N 55°21' E 014°36'1211.5
2015-Mar-26 17:33N 55°12' E 014°23'1010.3
2015-Mar-26 16:33N 55°10' E 014°05'1212.2
2015-Mar-26 15:33N 55°11' E 013°44'1212.1
2015-Mar-26 14:32N 55°13' E 013°22'1212.0
2015-Mar-26 13:33N 55°14' E 013°02'1211.8
2015-Mar-26 12:33N 55°17' E 012°42'1010.3
2015-Mar-26 11:33N 55°27' E 012°41'1111.1
2015-Mar-26 10:33N 55°38' E 012°42'1111.0
2015-Mar-26 09:33N 55°49' E 012°42'1110.8
2015-Mar-26 08:33N 55°60' E 012°37'8 8.0
2015-Mar-26 07:33N 56°07' E 012°31'1110.6
2015-Mar-26 06:34N 56°12' E 012°15'1211.8
2015-Mar-26 05:33N 56°09' E 011°54'56 4.9
2015-Mar-25 18:04N 56°09' E 010°13'0 0.0
2015-Mar-25 17:31N 56°09' E 010°13'0 0.0
2015-Mar-25 16:31N 56°09' E 010°13'0 0.0
2015-Mar-25 15:31N 56°09' E 010°13'0 0.0
2015-Mar-25 14:28N 56°09' E 010°13'0 0.0
2015-Mar-25 13:28N 56°09' E 010°13'0 0.0
2015-Mar-25 12:25N 56°09' E 010°13'0 0.0
2015-Mar-25 11:19N 56°09' E 010°13'0 0.0
2015-Mar-25 10:25N 56°09' E 010°13'0 0.0
2015-Mar-25 09:31N 56°09' E 010°13'0 0.0
2015-Mar-25 08:31N 56°09' E 010°13'0 0.0
2015-Mar-25 07:28N 56°09' E 010°13'0 0.0
2015-Mar-25 06:31N 56°09' E 010°13'0 0.0
2015-Mar-25 05:22N 56°09' E 010°13'0 0.0
2015-Mar-25 04:31N 56°09' E 010°13'0 0.0
2015-Mar-25 03:31N 56°09' E 010°13'0 0.0
2015-Mar-25 02:19N 56°09' E 010°13'0 0.0
2015-Mar-25 01:31N 56°09' E 010°13'0 0.0
2015-Mar-25 00:28N 56°09' E 010°13'0 0.0
2015-Mar-24 23:28N 56°09' E 010°13'0 0.0
2015-Mar-24 22:28N 56°09' E 010°13'0 0.0
2015-Mar-24 21:19N 56°09' E 010°13'0 0.0
2015-Mar-24 20:31N 56°09' E 010°13'0 0.0
2015-Mar-24 19:31N 56°09' E 010°13'0 0.0
2015-Mar-24 18:31N 56°09' E 010°13'0 0.0
2015-Mar-24 17:13N 56°09' E 010°13'0 0.0
2015-Mar-24 16:31N 56°09' E 010°13'0 0.0
2015-Mar-24 15:31N 56°09' E 010°13'0 0.0
2015-Mar-24 14:31N 56°09' E 010°13'0 0.0
2015-Mar-24 13:31N 56°09' E 010°13'0 0.0
2015-Mar-24 12:33N 56°09' E 010°13'0 0.5
2015-Mar-24 11:33N 56°09' E 010°14'1 0.6
2015-Mar-24 10:25N 56°09' E 010°13'0 0.0
2015-Mar-24 09:31N 56°09' E 010°13'0 0.0
2015-Mar-24 08:31N 56°09' E 010°13'0 0.0
2015-Mar-24 07:31N 56°09' E 010°13'0 0.0
2015-Mar-24 06:31N 56°09' E 010°13'0 0.0
2015-Mar-24 05:31N 56°09' E 010°13'0 0.0
2015-Mar-24 04:28N 56°09' E 010°13'0 0.0
2015-Mar-24 03:31N 56°09' E 010°13'0 0.0
2015-Mar-24 02:31N 56°09' E 010°13'0 0.0
2015-Mar-24 01:31N 56°09' E 010°13'0 0.0
2015-Mar-24 00:31N 56°09' E 010°13'0 0.0
2015-Mar-23 23:31N 56°09' E 010°13'0 0.0
2015-Mar-23 22:31N 56°09' E 010°13'0 0.0
2015-Mar-23 21:31N 56°09' E 010°13'0 0.0
2015-Mar-23 20:31N 56°09' E 010°13'0 0.0
2015-Mar-23 19:31N 56°09' E 010°13'0 0.0
2015-Mar-23 18:31N 56°09' E 010°13'0 0.0
2015-Mar-23 17:31N 56°09' E 010°13'0 0.0
2015-Mar-23 16:31N 56°09' E 010°13'0 0.0
2015-Mar-23 15:31N 56°09' E 010°13'0 0.0
2015-Mar-23 14:25N 56°09' E 010°13'0 0.0
2015-Mar-23 13:19N 56°09' E 010°13'0 0.0
2015-Mar-23 12:31N 56°09' E 010°13'0 0.0
2015-Mar-23 11:31N 56°09' E 010°13'0 0.0
2015-Mar-23 10:31N 56°09' E 010°13'0 0.0
2015-Mar-23 09:07N 56°09' E 010°13'0 0.0
2015-Mar-23 08:19N 56°09' E 010°13'0 0.0
2015-Mar-23 07:25N 56°09' E 010°13'0 0.0
2015-Mar-23 06:31N 56°09' E 010°13'0 0.0
2015-Mar-23 05:28N 56°09' E 010°13'0 0.0
2015-Mar-23 04:31N 56°09' E 010°13'0 0.0
2015-Mar-23 03:31N 56°09' E 010°13'0 0.0
2015-Mar-23 02:28N 56°09' E 010°13'0 0.0
2015-Mar-23 01:31N 56°09' E 010°13'0 0.0
2015-Mar-23 00:28N 56°09' E 010°13'0 0.0
2015-Mar-22 23:31N 56°09' E 010°13'0 0.0
2015-Mar-22 22:31N 56°09' E 010°13'0 0.0
2015-Mar-22 21:31N 56°09' E 010°13'0 0.0
2015-Mar-22 20:31N 56°09' E 010°13'0 0.0
2015-Mar-22 19:31N 56°09' E 010°13'0 0.0
2015-Mar-22 18:31N 56°09' E 010°13'0 0.0
2015-Mar-22 17:31N 56°09' E 010°13'0 0.0
2015-Mar-22 16:31N 56°09' E 010°13'0 0.0
2015-Mar-22 15:31N 56°09' E 010°13'0 0.0
2015-Mar-22 14:31N 56°09' E 010°13'0 0.0
2015-Mar-22 13:28N 56°09' E 010°13'0 0.0
2015-Mar-22 12:31N 56°09' E 010°13'0 0.0
2015-Mar-22 11:31N 56°09' E 010°13'0 0.0
2015-Mar-22 10:31N 56°09' E 010°13'0 0.0
2015-Mar-22 09:31N 56°09' E 010°13'0 0.0
2015-Mar-22 08:31N 56°09' E 010°13'0 0.0
2015-Mar-22 07:31N 56°09' E 010°13'0 0.0
2015-Mar-22 06:31N 56°09' E 010°13'0 0.0
2015-Mar-22 05:31N 56°09' E 010°13'  

Dump ship's entire track history